Pasadena 2N

39° 08' 31"N, 76° 30' 27"W, Elevation 43 ft.
Eastern Time

Hourly observations for the last 72 hours

Date Time Temperature (°F) Humi-
dity

(%)
Wind
(mph)
Pressure Rain (in) Sun
(W/m2)
ET
(in)
Air Dew 6 Hour 1 Hr 3 Hr 6 Hr Day
Alt
(in)
Sea
Level

(mb)
Max Min
18 10:00 49.2 38.3 66 S 7 G 15 29.84 1010.6 0.00 174 0.004
18 09:00 46.2 37.0 70 SSE 6 G 13 29.87 1011.6 0.00 46 0.002
18 08:00 43.6 35.5 73 S 5 G 14 29.90 1012.6 0.00 26 0.001
18 07:00 40.6 34.0 40.6 32.0 77 S 4 G 9 29.93 1013.5 0.00 5 0.000
18 06:00 37.8 32.8 82 SSE 4 G 10 29.95 1014.2 0.00 0 0.000
18 05:00 34.6 31.1 87 S 1 G 5 29.99 1015.5 0.00 0 0.000
18 04:00 32.6 30.3 91 S 3 G 6 29.99 1015.7 0.00 0 0.000
18 03:00 32.3 29.7 90 SE 1 G 2 30.01 1016.2 0.00 0 0.000
18 02:00 32.8 30.5 91 SSE 1 G 4 30.03 1017.0 0.00 0 0.000
18 01:00 32.2 30.1 35.9 31.7 92 S 0 G 2 30.06 1017.8 0.00 0 0.000
18 00:00 32.1 29.8 91 S 1 G 2 30.08 1018.8 0.00 0 0.049
17 23:00 32.2 29.3 89 S 0 G 2 30.09 1018.9 0.00 0 0.049
17 22:00 33.0 29.8 88 S 1 G 3 30.10 1019.5 0.00 0 0.049
17 21:00 32.8 28.8 85 S 0 G 2 30.10 1019.5 0.00 0 0.049
17 20:00 34.0 29.1 82 S 1 G 3 30.12 1020.0 0.00 0 0.049
17 19:00 35.9 29.4 52.6 35.9 77 Calm 30.13 1020.4 0.00 0 0.048
17 18:00 39.0 30.1 70 WSW 0 G 2 30.13 1020.5 0.00 0 0.047
17 17:00 44.9 30.6 57 WSW 0 G 1 30.13 1020.4 0.00 0 0.046
17 16:00 49.6 30.2 47 W 0 G 4 30.13 1020.3 0.00 33 0.044
17 15:00 50.5 30.0 45 WNW 4 G 12 30.12 1020.1 0.00 56 0.042
17 14:00 51.4 30.8 45 W 3 G 5 30.13 1020.3 0.00 97 0.034
17 13:00 52.6 30.7 52.7 35.0 43 NW 4 G 10 30.15 1020.9 0.00 564 0.023
17 12:00 50.6 31.1 47 WNW 4 G 10 30.16 1021.5 0.00 517 0.012
17 11:00 47.5 31.7 54 WNW 4 G 9 30.19 1022.4 0.00 265 0.009
17 10:00 45.6 31.7 58 WNW 4 G 9 30.20 1022.6 0.00 33 0.007
17 09:00 43.3 32.7 66 W 4 G 13 30.18 1022.1 0.00 28 0.006
17 08:00 37.7 31.5 78 W 1 G 6 30.18 1022.0 0.00 19 0.006
17 07:00 35.4 29.8 42.8 35.4 80 W 1 G 2 30.17 1021.5 0.00 0 0.006
17 06:00 37.6 31.0 77 W 1 G 7 30.14 1020.7 0.00 0 0.005
17 05:00 37.7 31.1 77 W 1 G 7 30.12 1020.1 0.00 0 0.004
17 04:00 37.5 31.0 77 W 2 G 4 30.10 1019.5 0.00 0 0.003
17 03:00 40.3 31.7 71 W 2 G 6 30.09 1019.1 0.00 0 0.002
17 02:00 42.7 32.5 67 SSW 3 G 5 30.08 1018.8 0.00 0 0.001
17 01:00 42.0 31.5 48.1 41.9 66 W 4 G 7 30.07 1018.3 0.00 0 0.000
17 00:00 43.0 32.0 65 W 2 G 10 30.07 1018.2 0.01 0 0.057
16 23:00 44.3 32.1 62 W 3 G 8 30.05 1017.7 0.01 0 0.055
16 22:00 45.0 31.5 59 W 4 G 9 30.06 1017.9 0.01 0 0.053
16 21:00 45.2 31.7 59 WNW 4 G 21 30.05 1017.6 0.01 0 0.051
16 20:00 46.0 32.1 58 W 5 G 11 30.04 1017.2 0.01 0 0.049
16 19:00 48.1 34.0 61.3 48.1 58 W 5 G 15 30.02 1016.7 0.01 0 0.047
16 18:00 50.6 34.1 53 WNW 4 G 14 29.98 1015.3 0.01 0 0.045
16 17:00 53.1 34.5 49 W 2 G 9 29.94 1014.0 0.01 0 0.043
16 16:00 56.2 36.8 48 WNW 6 G 16 29.90 1012.5 0.01 25 0.040
16 15:00 59.3 36.8 43 W 6 G 13 29.86 1011.2 0.01 67 0.036
16 14:00 60.5 38.5 44 W 4 G 20 29.84 1010.7 0.01 211 0.027
16 13:00 60.8 39.9 61.0 40.1 46 NW 6 G 17 29.85 1010.8 0.01 524 0.016
16 12:00 59.9 40.2 48 WNW 4 G 11 29.85 1010.9 0.01 613 0.005
16 11:00 58.2 42.6 56 WNW 2 G 14 29.88 1012.0 0.01 482 0.002
16 10:00 53.1 44.7 73 W 2 G 11 29.91 1012.8 0.01 35 0.001
16 09:00 47.2 42.3 83 W 3 G 9 29.91 1012.8 0.01 32 0.000
16 08:00 41.5 40.2 95 WSW 1 G 3 29.91 1013.0 0.01 19 0.000
16 07:00 40.2 38.6 45.4 40.2 94 W 1 G 4 29.91 1012.9 0.01 0.01 0 0.000
16 06:00 42.2 40.6 94 S 0 G 1 29.90 1012.7 0.01 0 0.000
16 05:00 45.1 43.5 94 S 0 G 2 29.92 1013.2 0.01 0 0.000
16 04:00 45.2 43.6 94 ESE 1 G 3 29.93 1013.4 0.01 0.01 0 0.000
16 03:00 45.0 43.1 93 Calm 29.95 1014.2 0.01 0 0.000
16 02:00 45.2 43.0 92 Calm 29.97 1014.9 0.01 0.01 0 0.000
16 01:00 45.4 42.4 45.5 44.3 89 Calm 29.99 1015.7 0.00 0 0.000
16 00:00 45.2 42.4 90 W 0 G 2 30.01 1016.4 0.00 0 0.032
15 23:00 44.9 41.9 89 Calm 30.02 1016.6 0.00 0 0.032
15 22:00 45.4 42.1 88 Calm 30.04 1017.3 0.00 0 0.032
15 21:00 45.0 41.7 88 NE 0 G 1 30.06 1017.9 0.00 0 0.032
15 20:00 44.6 40.7 86 Calm 30.07 1018.2 0.00 0 0.032
15 19:00 44.4 40.2 51.7 44.3 85 Calm 30.08 1018.7 0.00 0 0.032
15 18:00 44.9 40.4 84 Calm 30.08 1018.8 0.00 0 0.032
15 17:00 46.4 39.9 78 Calm 30.10 1019.3 0.00 0 0.032
15 16:00 49.0 40.4 72 Calm 30.11 1019.8 0.00 33 0.031
15 15:00 49.6 39.5 68 NNE 2 G 3 30.13 1020.4 0.00 67 0.028
15 14:00 50.1 40.0 68 N 1 G 3 30.14 1020.7 0.00 193 0.023
15 13:00 51.7 40.3 51.8 37.0 65 N 2 G 5 30.17 1021.6 0.00 171 0.014
15 12:00 49.2 41.3 74 N 1 G 8 30.20 1022.6 0.00 513 0.005
15 11:00 45.8 38.7 76 E 3 G 7 30.23 1023.7 0.00 359 0.003

Data generated by WxSolution Version 1.9.0.7, Build 2017.01.19.